Blanchard, ND (58009)

2:56 AM CDT on September 01, 2015 (GMT -0500)
PFS Hunter | | Change Station
CLOSE
Current Station
Personal Weather Station
Location: Hunter, ND
Elevation: 974 ft
Nearby Weather Stations

Elev 974 ft 47.15 °N, 97.21 °W | Updated 7 seconds ago

Clear
Clear
60.3 °F
Feels Like 60.3 °F
N
1.1
Wind Variable Wind from West
Gusts 3.0 mph

Today
High -- | Low -- °F
--% Chance of Precip.
Yesterday
High -- | Low -- °F
Precip. -- in
6:47 AM 8:09 PM
Waning Gibbous, 90% visible
Pressure 29.86 in
Visibility 7.0 miles
Clouds Clear
Dew Point 55 °F
Humidity 83%
Rainfall 0.00 in
Snow Depth Not available.
UV 0 out of 12
Pollen 11.50 out of 12
Air Quality Not available.
Flu Activity Not available.
METAR KFAR 010753Z 00000KT 7SM CLR 16/14 A2987 RMK AO2 SLP112 T01560144
Pressure 29.86 in
Visibility 7.0 miles
Clouds Clear
Dew Point 55 °F
Humidity 83%
Rainfall 0.00 in
Snow Depth Not available.
UV 0 out of 12
Pollen 11.50 out of 12
Air Quality Not available.
Flu Activity Not available.
METAR KFAR 010753Z 00000KT 7SM CLR 16/14 A2987 RMK AO2 SLP112 T01560144

10-Day Weather Forecast

×

Almanac

Astronomy

Sep. 01, 2015 Rise Set
Actual Time
Civil Twilight
Nautical Twilight
Astronomical Twilight
Moon
Length of Visible Light
Length of Day
Tomorrow will be .
, % of the Moon is Illuminated

Today's Extremes

State Highs State Lows

Community

WunderPhotos

Upload Photos

1,851,488 photos uploaded!

WunderBlogs® & News

Nearby

Air Quality

  Air Quality AQ Index Pollutant
Not available.

Snow Depth

Station Depth Elevation

Earthquake Activity

City Distance Mag. Time & Date
Minimum magnitude displayed is 2.5.

Coastal Water Temperatures

Place Temperature

Stations

Nearby Weather Stations

Station Location Temp. Windchill Dew Point Humidity Wind Precip. Elev Updated Type